East Corinth, VT (05076)

8:57 AM EDT on September 03, 2015 (GMT -0400)
West Newbury Hills | | Change Station
CLOSE
Current Station
Personal Weather Station
Location: East Corinth, VT
Elevation: 1325 ft
Nearby Weather Stations

Elev 1325 ft 44.10 °N, 72.19 °W | Updated 21 seconds ago

Fog
Fog
67.5 °F
Feels Like 67.5 °F
N
0.0
Wind Variable Wind from NNW
Gusts 0.0 mph

Today
High -- | Low -- °F
--% Chance of Precip.
Yesterday
High -- | Low -- °F
Precip. -- in
6:14 AM 7:21 PM
Waning Gibbous, 70% visible
Pressure 29.97 in
Visibility 1.0 miles
Clouds Overcast 100 ft
Dew Point 67 °F
Humidity 97%
Rainfall 0.00 in
Snow Depth Not available.
UV 1 out of 12
Pollen 7.70 out of 12
Air Quality Not available.
Flu Activity Not available.
SPECI KMPV 031255Z AUTO 07004KT 1SM BR OVC001 18/17 A2997 RMK AO2 T01780172
Pressure 29.97 in
Visibility 1.0 miles
Clouds Overcast 100 ft
Dew Point 67 °F
Humidity 97%
Rainfall 0.00 in
Snow Depth Not available.
UV 1 out of 12
Pollen 7.70 out of 12
Air Quality Not available.
Flu Activity Not available.
SPECI KMPV 031255Z AUTO 07004KT 1SM BR OVC001 18/17 A2997 RMK AO2 T01780172

10-Day Weather Forecast

×

Almanac

Astronomy

Sep. 03, 2015 Rise Set
Actual Time
Civil Twilight
Nautical Twilight
Astronomical Twilight
Moon
Length of Visible Light
Length of Day
Tomorrow will be .
, % of the Moon is Illuminated

Today's Extremes

State Highs State Lows

Community

WunderPhotos

Upload Photos

1,851,946 photos uploaded!

WunderBlogs® & News

Nearby

Air Quality

  Air Quality AQ Index Pollutant
Not available.

Snow Depth

Station Depth Elevation

Earthquake Activity

City Distance Mag. Time & Date
Minimum magnitude displayed is 2.5.

Coastal Water Temperatures

Place Temperature

Stations

Nearby Weather Stations

Station Location Temp. Windchill Dew Point Humidity Wind Precip. Elev Updated Type